Time;durP1;ratioP1;P1;durP2;ratioP2;P2;SDS_P1;SDS_P2;PMS_P1;PMS_P2;Temp;Humidity;BMP_temperature;BMP_pressure;BME280_temperature;BME280_humidity;BME280_pressure;Samples;Min_cycle;Max_cycle;Signal;HPM_P1;HPM_P2
2023/06/23 00:00:50;;;;;;;8.00;7.20;;;17.40;99.90;;;;;;5057157;28;20904;-80
2023/06/23 00:03:17;;;;;;;8.20;7.40;;;17.40;99.90;;;;;;5056181;28;20455;-79
2023/06/23 00:05:44;;;;;;;10.80;9.70;;;17.40;99.90;;;;;;5055639;28;20533;-79
2023/06/23 00:08:12;;;;;;;10.23;9.17;;;17.30;99.90;;;;;;5057595;28;20888;-79
2023/06/23 00:10:39;;;;;;;8.83;7.97;;;17.30;99.90;;;;;;5056914;28;20546;-79
2023/06/23 00:13:06;;;;;;;7.90;7.20;;;17.30;99.90;;;;;;5056446;28;20501;-79
2023/06/23 00:15:33;;;;;;;11.10;8.37;;;17.40;99.90;;;;;;5056824;28;20530;-78
2023/06/23 00:18:00;;;;;;;10.10;9.00;;;17.40;99.90;;;;;;5057459;28;20454;-79
2023/06/23 00:20:27;;;;;;;11.20;9.50;;;17.40;99.90;;;;;;5057255;28;20490;-77
2023/06/23 00:22:55;;;;;;;9.70;8.70;;;17.40;99.90;;;;;;5057307;28;20521;-79
2023/06/23 00:25:23;;;;;;;8.57;7.67;;;17.40;99.90;;;;;;5058027;28;20535;-79
2023/06/23 00:27:50;;;;;;;9.73;8.70;;;17.40;99.90;;;;;;5060041;28;20457;-80
2023/06/23 00:30:17;;;;;;;9.60;8.50;;;17.40;99.90;;;;;;5060817;28;20454;-79
2023/06/23 00:32:44;;;;;;;9.60;8.67;;;17.40;99.90;;;;;;5061219;28;20492;-81
2023/06/23 00:35:13;;;;;;;11.63;9.23;;;17.40;99.90;;;;;;5059901;28;20454;-79
2023/06/23 00:37:40;;;;;;;11.80;10.50;;;17.40;99.90;;;;;;5059583;28;20471;-79
2023/06/23 00:40:10;;;;;;;10.83;9.30;;;17.30;99.90;;;;;;5059524;28;20452;-79
2023/06/23 00:42:46;;;;;;;9.37;8.47;;;17.30;99.90;;;;;;5061020;28;20478;-79
2023/06/23 00:45:13;;;;;;;14.00;10.90;;;17.30;99.90;;;;;;5059664;28;20451;-79
2023/06/23 00:47:42;;;;;;;9.60;8.70;;;17.40;99.90;;;;;;5060348;28;20481;-77
2023/06/23 00:50:11;;;;;;;10.73;9.63;;;17.30;99.90;;;;;;5060256;28;20481;-79
2023/06/23 00:52:38;;;;;;;14.03;10.83;;;17.30;99.90;;;;;;5059689;28;20575;-79
2023/06/23 00:55:06;;;;;;;12.47;8.30;;;17.20;99.90;;;;;;5056666;28;20461;-80
2023/06/23 00:57:34;;;;;;;11.27;10.10;;;17.30;99.90;;;;;;5053736;28;20477;-79
2023/06/23 01:00:05;;;;;;;10.67;9.67;;;17.30;99.90;;;;;;5056779;28;20455;-79
2023/06/23 01:02:31;;;;;;;10.33;9.33;;;17.30;99.90;;;;;;5056650;28;20447;-78
2023/06/23 01:05:00;;;;;;;13.03;11.63;;;17.30;99.90;;;;;;5056135;28;20548;-78
2023/06/23 01:07:32;;;;;;;11.53;10.43;;;17.40;99.90;;;;;;5055999;28;20478;-78
2023/06/23 01:10:07;;;;;;;10.20;9.30;;;17.40;99.90;;;;;;5054935;28;20446;-78
2023/06/23 01:12:43;;;;;;;11.20;10.10;;;17.40;99.90;;;;;;5056677;28;20976;-79
2023/06/23 01:15:15;;;;;;;13.57;10.33;;;17.40;99.90;;;;;;5052959;28;20820;-80
2023/06/23 01:17:48;;;;;;;11.77;10.57;;;17.30;99.90;;;;;;5057063;28;20837;-79
2023/06/23 01:20:21;;;;;;;10.77;9.67;;;17.30;99.90;;;;;;5054796;28;20460;-78
2023/06/23 01:23:19;;;;;;;15.07;11.50;;;17.30;99.90;;;;;;5057483;28;20450;-80
2023/06/23 01:25:54;;;;;;;13.83;10.87;;;17.30;99.90;;;;;;5055685;28;20480;-79
2023/06/23 01:28:50;;;;;;;12.90;10.03;;;17.30;99.90;;;;;;5057321;28;20544;-78
2023/06/23 01:31:23;;;;;;;13.10;10.87;;;17.30;99.90;;;;;;5021544;28;20461;-79
2023/06/23 01:33:56;;;;;;;14.77;13.17;;;17.20;99.90;;;;;;5056101;28;20478;-79
2023/06/23 01:36:38;;;;;;;16.13;12.63;;;17.20;99.90;;;;;;5055524;28;20477;-79
2023/06/23 01:39:08;;;;;;;12.97;11.67;;;17.20;99.90;;;;;;5056792;28;20456;-78
2023/06/23 01:41:42;;;;;;;13.60;10.97;;;17.30;99.90;;;;;;5055881;28;20466;-79
2023/06/23 01:44:14;;;;;;;14.13;12.63;;;17.30;99.90;;;;;;5057461;28;20867;-79
2023/06/23 01:46:47;;;;;;;15.83;13.57;;;17.30;99.90;;;;;;5055576;28;20485;-78
2023/06/23 01:49:17;;;;;;;16.70;14.37;;;17.30;99.90;;;;;;5048628;28;20788;-79
2023/06/23 01:51:46;;;;;;;13.50;12.07;;;17.30;99.90;;;;;;5054282;28;20488;-79
2023/06/23 01:54:15;;;;;;;18.37;15.33;;;17.30;99.90;;;;;;5056349;28;20505;-80
2023/06/23 01:56:43;;;;;;;14.80;11.97;;;17.40;99.90;;;;;;5056417;28;20563;-80
2023/06/23 01:59:12;;;;;;;21.73;16.57;;;17.30;99.90;;;;;;5056094;28;20465;-78
2023/06/23 02:01:40;;;;;;;20.17;16.03;;;17.20;99.90;;;;;;5056090;28;20452;-78
2023/06/23 02:04:09;;;;;;;14.80;13.00;;;17.20;99.90;;;;;;5056725;28;21105;-78
2023/06/23 02:06:38;;;;;;;16.83;14.97;;;17.30;99.90;;;;;;5055083;28;20490;-79
2023/06/23 02:09:07;;;;;;;17.60;13.53;;;17.30;99.90;;;;;;5055537;28;20448;-79
2023/06/23 02:11:36;;;;;;;16.87;15.00;;;17.30;99.90;;;;;;5055519;28;20449;-80
2023/06/23 02:14:04;;;;;;;17.33;13.57;;;17.30;99.90;;;;;;5056169;28;20853;-78
2023/06/23 02:16:33;;;;;;;14.30;12.87;;;17.30;99.90;;;;;;5054765;28;20478;-79
2023/06/23 02:19:01;;;;;;;15.60;14.10;;;17.30;99.90;;;;;;5056237;28;20445;-79
2023/06/23 02:21:30;;;;;;;14.30;12.80;;;17.30;99.90;;;;;;5056437;28;20458;-79
2023/06/23 02:24:03;;;;;;;17.10;15.30;;;17.40;99.90;;;;;;5057866;28;20452;-80
2023/06/23 02:26:31;;;;;;;16.20;13.63;;;17.30;99.90;;;;;;5052314;28;20480;-80
2023/06/23 02:28:58;;;;;;;14.30;12.80;;;17.30;99.90;;;;;;5057005;28;20460;-80
2023/06/23 02:31:26;;;;;;;17.60;13.63;;;17.30;99.90;;;;;;5057284;28;20468;-80
2023/06/23 02:33:53;;;;;;;16.27;14.57;;;17.40;99.90;;;;;;5056197;28;20483;-81
2023/06/23 02:36:23;;;;;;;15.93;14.33;;;17.30;99.90;;;;;;5056597;28;20471;-81
2023/06/23 02:38:55;;;;;;;21.63;15.03;;;17.30;99.90;;;;;;5057712;28;20454;-80
2023/06/23 02:41:25;;;;;;;15.10;13.03;;;17.40;99.90;;;;;;5057796;28;20455;-79
2023/06/23 02:43:55;;;;;;;11.67;9.97;;;17.40;99.90;;;;;;5057341;28;20443;-80
2023/06/23 02:46:25;;;;;;;12.10;9.40;;;17.30;99.90;;;;;;5056849;28;20479;-80
2023/06/23 02:48:59;;;;;;;14.10;10.80;;;17.30;99.90;;;;;;5057183;28;20455;-80
2023/06/23 02:51:28;;;;;;;13.40;10.83;;;17.30;99.90;;;;;;5056648;28;20455;-81
2023/06/23 02:54:04;;;;;;;14.13;12.13;;;17.20;99.90;;;;;;5056618;28;20482;-80
2023/06/23 02:56:33;;;;;;;12.53;10.87;;;17.30;99.90;;;;;;5056015;28;20465;-80
2023/06/23 02:59:07;;;;;;;13.00;10.40;;;17.20;99.90;;;;;;5057601;28;20953;-80
2023/06/23 03:01:37;;;;;;;12.33;10.00;;;17.10;99.90;;;;;;5057106;28;20445;-79
2023/06/23 03:04:04;;;;;;;14.40;10.40;;;17.20;99.90;;;;;;5056623;28;20456;-80
2023/06/23 03:06:35;;;;;;;11.40;9.70;;;17.20;99.90;;;;;;5056503;28;20482;-79
2023/06/23 03:09:04;;;;;;;11.50;10.23;;;17.20;99.90;;;;;;5056689;28;20513;-80
2023/06/23 03:11:31;;;;;;;11.20;9.73;;;17.20;99.90;;;;;;5056635;28;20560;-80
2023/06/23 03:13:58;;;;;;;12.67;10.30;;;17.30;99.90;;;;;;5055745;28;20492;-80
2023/06/23 03:16:32;;;;;;;12.13;10.23;;;17.30;99.90;;;;;;5055206;28;20856;-80
2023/06/23 03:19:07;;;;;;;13.13;11.40;;;17.20;99.90;;;;;;5055393;28;20513;-79
2023/06/23 03:21:37;;;;;;;19.97;12.00;;;17.20;99.90;;;;;;5057667;28;20437;-80
2023/06/23 03:24:09;;;;;;;12.70;10.90;;;17.20;99.90;;;;;;5056888;28;20464;-79
2023/06/23 03:26:40;;;;;;;11.87;10.67;;;17.20;99.90;;;;;;5055036;28;20482;-79
2023/06/23 03:29:09;;;;;;;11.90;10.40;;;17.30;99.90;;;;;;5054924;28;20454;-80
2023/06/23 03:31:40;;;;;;;13.90;11.90;;;17.30;99.90;;;;;;5055705;28;20441;-79
2023/06/23 03:34:08;;;;;;;13.10;11.20;;;17.40;99.90;;;;;;5055982;28;20485;-80
2023/06/23 03:36:39;;;;;;;12.37;11.07;;;17.40;99.90;;;;;;5055968;28;20858;-80
2023/06/23 03:39:15;;;;;;;15.00;12.07;;;17.40;99.90;;;;;;5054163;28;20456;-79
2023/06/23 03:41:42;;;;;;;14.90;13.40;;;17.40;99.90;;;;;;5054064;28;20963;-80
2023/06/23 03:44:15;;;;;;;16.73;14.57;;;17.40;99.90;;;;;;5055350;28;20968;-79
2023/06/23 03:46:47;;;;;;;13.30;11.90;;;17.40;99.90;;;;;;5054616;28;20478;-80
2023/06/23 03:49:15;;;;;;;15.40;13.20;;;17.40;99.90;;;;;;5056930;28;20458;-80
2023/06/23 03:51:45;;;;;;;14.07;12.50;;;17.40;99.90;;;;;;5056404;28;20469;-81
2023/06/23 03:54:16;;;;;;;16.53;12.50;;;17.40;99.90;;;;;;5055725;28;20504;-81
2023/06/23 03:56:44;;;;;;;17.70;14.03;;;17.50;99.90;;;;;;5055802;28;20485;-79
2023/06/23 03:59:12;;;;;;;19.00;14.57;;;17.40;99.90;;;;;;5055508;28;20908;-80
2023/06/23 04:01:41;;;;;;;17.80;13.43;;;17.40;99.90;;;;;;5047374;28;20482;-78
2023/06/23 04:04:11;;;;;;;13.47;12.07;;;17.30;99.90;;;;;;5055659;28;20456;-80
2023/06/23 04:06:40;;;;;;;17.10;14.23;;;17.40;99.90;;;;;;5054671;28;20494;-82
2023/06/23 04:09:08;;;;;;;18.33;14.67;;;17.40;99.90;;;;;;5056253;28;20454;-84
2023/06/23 04:11:38;;;;;;;26.90;16.97;;;17.40;99.90;;;;;;5057228;28;20453;-82
2023/06/23 04:14:06;;;;;;;20.23;15.83;;;17.40;99.90;;;;;;5056212;28;21205;-81
2023/06/23 04:16:38;;;;;;;16.50;13.33;;;17.40;99.90;;;;;;5057262;28;20479;-83
2023/06/23 04:19:08;;;;;;;19.70;16.10;;;17.40;99.90;;;;;;5058608;28;20471;-81
2023/06/23 04:21:38;;;;;;;16.63;13.37;;;17.40;99.90;;;;;;5057557;28;20968;-83
2023/06/23 04:24:08;;;;;;;21.03;17.27;;;17.50;99.90;;;;;;5057938;28;20450;-81
2023/06/23 04:26:37;;;;;;;18.03;14.70;;;17.50;99.90;;;;;;5056977;28;20544;-82
2023/06/23 04:29:10;;;;;;;16.37;14.67;;;17.50;99.90;;;;;;5058525;28;20459;-81
2023/06/23 04:31:38;;;;;;;16.90;14.40;;;17.60;99.90;;;;;;5058496;28;20466;-81
2023/06/23 04:34:05;;;;;;;17.20;15.17;;;17.60;99.90;;;;;;5061231;28;20509;-81
2023/06/23 04:36:40;;;;;;;16.10;13.93;;;17.60;99.90;;;;;;5058429;28;20491;-82
2023/06/23 04:39:15;;;;;;;21.33;15.73;;;17.60;99.90;;;;;;5061649;28;20461;-82
2023/06/23 04:41:48;;;;;;;22.07;14.80;;;17.50;99.90;;;;;;5063158;28;20504;-83
2023/06/23 04:44:18;;;;;;;18.17;14.40;;;17.50;99.90;;;;;;5063415;28;20444;-82
2023/06/23 04:46:47;;;;;;;14.57;13.03;;;17.50;99.90;;;;;;5061591;28;20510;-81
2023/06/23 04:49:19;;;;;;;17.67;15.00;;;17.60;99.90;;;;;;5061567;28;20453;-81
2023/06/23 04:51:47;;;;;;;20.93;16.80;;;17.70;99.90;;;;;;5061897;28;20457;-80
2023/06/23 04:54:20;;;;;;;18.97;16.97;;;17.70;99.90;;;;;;5060009;28;20482;-81
2023/06/23 04:56:59;;;;;;;16.97;15.10;;;17.70;99.90;;;;;;5060521;28;20496;-82
2023/06/23 04:59:28;;;;;;;19.00;15.93;;;17.70;99.90;;;;;;5060860;28;20456;-83
2023/06/23 05:01:56;;;;;;;17.50;15.70;;;17.70;99.90;;;;;;5057276;28;20470;-81
2023/06/23 05:04:24;;;;;;;16.53;14.73;;;17.70;99.90;;;;;;5059087;28;20490;-85
2023/06/23 05:06:53;;;;;;;14.67;13.17;;;17.80;99.90;;;;;;5055775;28;20485;-82
2023/06/23 05:09:22;;;;;;;23.03;20.53;;;17.80;99.90;;;;;;5063573;22;20497;-81
2023/06/23 05:11:54;;;;;;;22.13;19.90;;;17.70;99.90;;;;;;5068328;28;20521;-81
2023/06/23 05:14:24;;;;;;;17.33;15.50;;;17.70;99.90;;;;;;5073670;28;20471;-82
2023/06/23 05:16:54;;;;;;;24.80;18.80;;;17.70;99.90;;;;;;5062114;28;20557;-81
2023/06/23 05:19:22;;;;;;;20.33;17.70;;;17.70;99.90;;;;;;5042525;28;20471;-80
2023/06/23 05:21:51;;;;;;;18.97;16.27;;;17.70;99.90;;;;;;5070366;28;20444;-81
2023/06/23 05:24:20;;;;;;;20.60;16.60;;;17.70;99.90;;;;;;5070761;28;20447;-83
2023/06/23 05:26:48;;;;;;;25.63;16.07;;;17.80;99.90;;;;;;5069522;28;20452;-80
2023/06/23 05:29:17;;;;;;;19.97;17.80;;;17.80;99.90;;;;;;5073127;28;20501;-80
2023/06/23 05:31:45;;;;;;;17.90;16.10;;;17.80;99.90;;;;;;5071239;28;20529;-82
2023/06/23 05:34:16;;;;;;;21.03;17.80;;;17.80;99.90;;;;;;5069885;28;20559;-80
2023/06/23 05:36:47;;;;;;;18.47;16.30;;;17.70;99.90;;;;;;5065561;28;20646;-81
2023/06/23 05:39:16;;;;;;;19.13;15.17;;;17.70;99.90;;;;;;5066724;28;20534;-81
2023/06/23 05:41:43;;;;;;;24.00;20.37;;;17.80;99.90;;;;;;5060232;28;20464;-83
2023/06/23 05:44:10;;;;;;;20.30;16.90;;;17.60;99.90;;;;;;5071034;28;20484;-80
2023/06/23 05:46:42;;;;;;;19.80;17.80;;;17.70;99.90;;;;;;5070238;28;20466;-82
2023/06/23 05:49:12;;;;;;;18.87;16.83;;;17.80;99.90;;;;;;5069369;28;20463;-82
2023/06/23 05:51:41;;;;;;;22.30;18.90;;;17.80;99.90;;;;;;5069441;28;20454;-81
2023/06/23 05:54:11;;;;;;;21.10;18.87;;;17.80;99.90;;;;;;5070268;28;20451;-82
2023/06/23 05:56:43;;;;;;;20.43;18.23;;;17.80;99.90;;;;;;5071781;28;21004;-83
2023/06/23 05:59:21;;;;;;;23.80;20.23;;;17.80;99.90;;;;;;5060635;28;20471;-81
2023/06/23 06:01:53;;;;;;;21.00;18.47;;;17.80;99.90;;;;;;5067701;28;20462;-82
2023/06/23 06:04:25;;;;;;;20.00;17.83;;;17.80;99.90;;;;;;5069695;28;20472;-81
2023/06/23 06:06:55;;;;;;;21.60;18.73;;;17.90;99.90;;;;;;5070218;28;20452;-80
2023/06/23 06:09:23;;;;;;;24.57;20.37;;;17.90;99.90;;;;;;5071506;28;20558;-82
2023/06/23 06:11:52;;;;;;;20.43;17.93;;;17.90;99.90;;;;;;5062019;28;20813;-80
2023/06/23 06:14:20;;;;;;;21.97;19.57;;;18.00;99.90;;;;;;5064962;28;20519;-81
2023/06/23 06:16:51;;;;;;;21.73;19.43;;;18.10;99.90;;;;;;5069450;28;20459;-82
2023/06/23 06:19:22;;;;;;;19.07;17.10;;;18.10;99.90;;;;;;5073013;28;20543;-83
2023/06/23 06:21:52;;;;;;;17.80;15.90;;;18.20;99.90;;;;;;5071377;28;20500;-85
2023/06/23 06:24:21;;;;;;;19.07;16.80;;;18.30;99.90;;;;;;5071338;28;20517;-84
2023/06/23 06:26:50;;;;;;;20.13;18.13;;;18.30;99.90;;;;;;5070877;28;20475;-83
2023/06/23 06:29:19;;;;;;;17.90;16.10;;;18.40;99.90;;;;;;5070604;28;20483;-83
2023/06/23 06:31:48;;;;;;;17.80;16.00;;;18.40;99.90;;;;;;5075895;28;20523;-83
2023/06/23 06:34:20;;;;;;;17.73;15.83;;;18.60;99.90;;;;;;5074317;28;20454;-83
2023/06/23 06:36:48;;;;;;;16.53;14.80;;;18.80;99.90;;;;;;5073642;28;20440;-85
2023/06/23 06:39:16;;;;;;;19.90;15.43;;;18.90;99.90;;;;;;5074854;28;20509;-80
2023/06/23 06:41:45;;;;;;;19.63;16.10;;;19.10;99.90;;;;;;5075255;28;20471;-84
2023/06/23 06:44:11;;;;;;;18.80;16.73;;;19.10;99.90;;;;;;5074245;28;20452;-83
2023/06/23 06:46:40;;;;;;;17.43;15.30;;;19.10;99.90;;;;;;5073691;28;20448;-85
2023/06/23 06:49:10;;;;;;;16.10;14.40;;;19.20;99.90;;;;;;5074315;28;20479;-85
2023/06/23 06:51:41;;;;;;;17.07;13.33;;;19.30;99.90;;;;;;5072821;28;20459;-82
2023/06/23 06:54:08;;;;;;;15.70;13.93;;;19.30;99.90;;;;;;5071640;28;20585;-84
2023/06/23 06:56:35;;;;;;;21.37;15.93;;;19.50;99.90;;;;;;5071823;28;20550;-84
2023/06/23 06:59:02;;;;;;;19.80;13.43;;;19.50;99.90;;;;;;5072659;28;20470;-81
2023/06/23 07:01:29;;;;;;;17.10;15.40;;;19.40;99.90;;;;;;5073511;28;20463;-82
2023/06/23 07:03:57;;;;;;;15.90;14.30;;;19.40;99.90;;;;;;5073029;28;20475;-84
2023/06/23 07:06:27;;;;;;;21.47;16.93;;;19.30;99.90;;;;;;5073194;28;20482;-82
2023/06/23 07:08:55;;;;;;;16.47;14.77;;;19.20;99.90;;;;;;5071638;28;20483;-82
2023/06/23 07:11:22;;;;;;;20.83;18.00;;;19.30;99.90;;;;;;5073958;28;20448;-83
2023/06/23 07:13:49;;;;;;;15.57;14.00;;;19.30;99.90;;;;;;5074529;28;20466;-83
2023/06/23 07:16:16;;;;;;;17.47;14.00;;;19.30;99.90;;;;;;5072750;28;20562;-84
2023/06/23 07:18:42;;;;;;;19.47;15.63;;;19.40;99.90;;;;;;5066401;28;20798;-83
2023/06/23 07:21:10;;;;;;;16.53;14.27;;;19.30;99.90;;;;;;5068321;28;20455;-84
2023/06/23 07:23:38;;;;;;;14.90;13.47;;;19.30;99.90;;;;;;5071498;28;20521;-82
2023/06/23 07:26:06;;;;;;;13.57;12.07;;;19.40;99.90;;;;;;5067594;28;20947;-82
2023/06/23 07:28:33;;;;;;;17.27;14.77;;;19.50;99.90;;;;;;5070531;28;20551;-82
2023/06/23 07:31:00;;;;;;;14.50;13.03;;;19.60;99.90;;;;;;5069346;28;20482;-81
2023/06/23 07:33:27;;;;;;;16.97;14.77;;;19.60;99.90;;;;;;5069652;28;20452;-84
2023/06/23 07:35:54;;;;;;;13.83;12.10;;;19.70;99.90;;;;;;5073847;28;20503;-83
2023/06/23 07:38:21;;;;;;;16.07;13.90;;;19.90;99.90;;;;;;5073490;28;20472;-86
2023/06/23 07:40:48;;;;;;;14.23;12.13;;;20.10;99.90;;;;;;5072676;28;20444;-84
2023/06/23 07:43:16;;;;;;;12.90;10.73;;;20.40;99.90;;;;;;5065633;28;20960;-84
2023/06/23 07:45:43;;;;;;;20.07;13.83;;;20.50;99.90;;;;;;5064545;28;20452;-84
2023/06/23 07:48:10;;;;;;;13.07;11.77;;;20.50;99.90;;;;;;5062070;28;20514;-86
2023/06/23 07:50:37;;;;;;;11.07;9.87;;;20.60;99.90;;;;;;5059734;28;20482;-84
2023/06/23 07:53:03;;;;;;;12.83;11.53;;;20.60;99.90;;;;;;5058612;28;20448;-84
2023/06/23 07:55:30;;;;;;;11.67;10.47;;;20.70;99.90;;;;;;5059116;28;20480;-85
2023/06/23 07:57:57;;;;;;;11.03;9.93;;;20.80;99.90;;;;;;5057983;28;20554;-82
2023/06/23 08:00:26;;;;;;;12.97;8.20;;;20.60;99.90;;;;;;5056922;28;20470;-83
2023/06/23 08:02:53;;;;;;;11.00;9.37;;;20.70;99.90;;;;;;5056457;28;20563;-82
2023/06/23 08:05:19;;;;;;;10.73;7.60;;;20.60;99.90;;;;;;5056123;28;20567;-83
2023/06/23 08:07:48;;;;;;;10.00;7.10;;;20.60;99.90;;;;;;5056339;28;20498;-82
2023/06/23 08:10:15;;;;;;;6.93;6.13;;;20.70;99.90;;;;;;5058402;28;20459;-81
2023/06/23 08:12:42;;;;;;;9.30;7.87;;;20.80;99.90;;;;;;5066473;28;20929;-81
2023/06/23 08:15:10;;;;;;;8.10;7.30;;;20.90;99.90;;;;;;5064972;28;20484;-82
2023/06/23 08:17:38;;;;;;;8.90;6.73;;;20.90;99.90;;;;;;5065623;28;20456;-82
2023/06/23 08:20:06;;;;;;;7.93;6.67;;;21.00;99.90;;;;;;5060765;28;20451;-81
2023/06/23 08:22:33;;;;;;;6.20;5.43;;;21.10;99.90;;;;;;5059374;28;20525;-83
2023/06/23 08:25:00;;;;;;;8.20;6.40;;;21.10;99.90;;;;;;5059220;28;20487;-83
2023/06/23 08:27:27;;;;;;;6.90;5.23;;;21.20;99.90;;;;;;5059143;28;20458;-84
2023/06/23 08:29:54;;;;;;;7.10;5.50;;;21.20;10.00;;;;;;5059938;28;20490;-85
2023/06/23 08:32:21;;;;;;;5.67;5.07;;;21.40;99.90;;;;;;5059466;28;20494;-85
2023/06/23 08:34:49;;;;;;;7.07;6.40;;;21.50;99.90;;;;;;5060541;28;20462;-83
2023/06/23 08:37:16;;;;;;;9.73;4.23;;;21.50;99.90;;;;;;5058769;28;20452;-85
2023/06/23 08:39:43;;;;;;;5.73;4.10;;;21.50;1.00;;;;;;5057877;28;20491;-84
2023/06/23 08:42:10;;;;;;;4.73;4.10;;;21.70;1.00;;;;;;5058259;28;20479;-84
2023/06/23 08:44:38;;;;;;;4.43;3.77;;;21.90;99.90;;;;;;5056462;28;20590;-83
2023/06/23 08:47:07;;;;;;;4.13;3.50;;;22.00;52.50;;;;;;5060306;28;20443;-85
2023/06/23 08:49:37;;;;;;;3.50;2.90;;;22.20;36.40;;;;;;5061146;28;20502;-84
2023/06/23 08:52:06;;;;;;;4.70;3.67;;;22.30;1.00;;;;;;5053048;28;20459;-84
2023/06/23 08:54:33;;;;;;;4.60;3.40;;;22.30;1.00;;;;;;5061132;28;20542;-84
2023/06/23 08:57:00;;;;;;;5.70;3.73;;;22.40;1.00;;;;;;5060834;28;20483;-84
2023/06/23 08:59:27;;;;;;;4.30;3.67;;;22.60;1.00;;;;;;5060977;28;20544;-84
2023/06/23 09:01:54;;;;;;;3.37;3.07;;;22.80;1.00;;;;;;5060572;28;20515;-84
2023/06/23 09:04:21;;;;;;;5.10;3.73;;;22.90;1.00;;;;;;5059826;28;20544;-90
2023/06/23 09:06:48;;;;;;;3.90;3.33;;;23.00;1.00;;;;;;5061407;28;20534;-85
2023/06/23 09:09:18;;;;;;;4.70;3.27;;;23.00;1.00;;;;;;5045363;28;20491;-85
2023/06/23 09:11:45;;;;;;;4.80;3.30;;;23.10;1.00;;;;;;5062673;28;20455;-84
2023/06/23 09:14:13;;;;;;;5.67;4.30;;;23.40;1.00;;;;;;5063469;28;20511;-86
2023/06/23 09:16:40;;;;;;;3.90;3.13;;;23.70;1.00;;;;;;5062375;28;20484;-83
2023/06/23 09:19:09;;;;;;;7.33;3.77;;;23.90;1.00;;;;;;5060865;28;20566;-84
2023/06/23 09:21:36;;;;;;;6.97;4.10;;;23.90;99.90;;;;;;5061851;28;20451;-85
2023/06/23 09:24:05;;;;;;;5.00;4.30;;;23.90;99.90;;;;;;5062218;28;20454;-85
2023/06/23 09:26:45;;;;;;;7.67;4.37;;;23.80;1.00;;;;;;5060904;28;20452;-84
2023/06/23 09:29:18;;;;;;;5.20;3.97;;;23.70;99.90;;;;;;5061614;28;20505;-86
2023/06/23 09:31:45;;;;;;;4.60;4.20;;;24.20;1.00;;;;;;5060774;28;20479;-84
2023/06/23 09:34:23;;;;;;;5.50;3.73;;;24.50;1.00;;;;;;5061393;28;20451;-85
2023/06/23 09:36:52;;;;;;;3.80;2.60;;;24.70;1.00;;;;;;5058697;28;20511;-85
2023/06/23 09:39:19;;;;;;;3.63;3.27;;;24.90;99.90;;;;;;5061298;28;20463;-84
2023/06/23 09:41:54;;;;;;;4.70;3.60;;;24.70;99.90;;;;;;5061339;28;20452;-83
2023/06/23 09:44:21;;;;;;;6.00;4.00;;;24.70;1.00;;;;;;5061971;28;20452;-84
2023/06/23 09:46:48;;;;;;;4.47;3.83;;;24.80;99.90;;;;;;5060672;28;20948;-84
2023/06/23 09:49:15;;;;;;;3.83;2.93;;;24.80;99.90;;;;;;5060635;28;20519;-83
2023/06/23 09:51:47;;;;;;;4.80;3.20;;;25.10;99.90;;;;;;5060346;28;20452;-84
2023/06/23 09:54:14;;;;;;;4.03;3.53;;;25.20;99.90;;;;;;5059714;28;20440;-84
2023/06/23 09:56:40;;;;;;;5.27;3.90;;;25.10;99.90;;;;;;5059454;28;20539;-82
2023/06/23 09:59:09;;;;;;;4.50;3.07;;;25.20;99.90;;;;;;5053406;28;20536;-83
2023/06/23 10:01:38;;;;;;;6.50;4.17;;;25.20;1.00;;;;;;5040854;28;20496;-83
2023/06/23 10:04:05;;;;;;;5.50;3.80;;;25.10;99.90;;;;;;5039678;28;20453;-84
2023/06/23 10:06:37;;;;;;;3.77;3.10;;;25.10;99.90;;;;;;5059250;28;20447;-85
2023/06/23 10:09:07;;;;;;;4.90;3.63;;;25.10;48.80;;;;;;5061328;28;20490;-85
2023/06/23 10:11:35;;;;;;;3.67;3.00;;;24.90;1.00;;;;;;5071454;28;20436;-85
2023/06/23 10:14:05;;;;;;;4.80;3.90;;;24.90;1.00;;;;;;5067836;28;20511;-85
2023/06/23 10:16:34;;;;;;;4.10;3.53;;;24.60;86.00;;;;;;5059769;28;20487;-85
2023/06/23 10:19:01;;;;;;;4.77;3.90;;;24.30;99.90;;;;;;5059924;28;20498;-86
2023/06/23 10:21:31;;;;;;;6.70;4.73;;;24.20;99.90;;;;;;5059754;28;20456;-84
2023/06/23 10:24:01;;;;;;;10.70;4.67;;;24.30;1.00;;;;;;5059945;28;20458;-85
2023/06/23 10:26:31;;;;;;;4.07;3.50;;;24.70;99.90;;;;;;5059937;28;20526;-84
2023/06/23 10:28:59;;;;;;;5.10;4.00;;;25.10;1.00;;;;;;5047487;28;20484;-84
2023/06/23 10:31:31;;;;;;;4.57;3.70;;;25.70;99.90;;;;;;5039758;28;20461;-84
2023/06/23 10:34:00;;;;;;;6.30;3.60;;;26.20;99.90;;;;;;5039557;28;20437;-84
2023/06/23 10:36:31;;;;;;;5.50;4.73;;;26.40;99.90;;;;;;5039268;28;20512;-85
2023/06/23 10:39:01;;;;;;;6.13;3.77;;;26.40;99.90;;;;;;5038932;28;20499;-84
2023/06/23 10:41:28;;;;;;;5.00;3.57;;;26.30;99.90;;;;;;5039680;28;20543;-84
2023/06/23 10:43:57;;;;;;;6.97;4.30;;;25.80;99.90;;;;;;5058221;28;20528;-84
2023/06/23 10:46:27;;;;;;;5.37;4.20;;;25.60;1.00;;;;;;5059157;28;20939;-84
2023/06/23 10:48:55;;;;;;;5.07;3.87;;;25.80;1.00;;;;;;5061802;28;20475;-85
2023/06/23 10:51:45;;;;;;;4.90;3.63;;;26.30;1.00;;;;;;5041283;28;20461;-85
2023/06/23 11:00:49;;;;;;;13.97;4.47;;;27.00;1.00;;;;;;5057470;28;20448;-86
2023/06/23 11:03:35;;;;;;;4.27;3.80;;;26.80;1.00;;;;;;5062925;28;20439;-86
2023/06/23 11:06:09;;;;;;;4.30;3.33;;;26.80;99.90;;;;;;5060656;28;20427;-87
2023/06/23 11:08:42;;;;;;;6.87;4.53;;;27.20;1.00;;;;;;5060232;28;20520;-86
2023/06/23 11:11:28;;;;;;;5.57;4.37;;;27.50;94.80;;;;;;5061304;28;21004;-87
2023/06/23 11:13:57;;;;;;;5.57;4.10;;;27.40;1.00;;;;;;5079649;22;20525;-83
2023/06/23 11:16:28;;;;;;;5.47;3.90;;;27.60;51.40;;;;;;5051719;28;20488;-84
2023/06/23 11:18:57;;;;;;;5.27;3.10;;;27.70;99.90;;;;;;5059166;28;20436;-85
2023/06/23 11:21:31;;;;;;;5.50;3.23;;;28.00;99.90;;;;;;5058729;28;20451;-83
2023/06/23 11:24:18;;;;;;;9.00;4.73;;;28.00;99.90;;;;;;5059647;28;20555;-83
2023/06/23 11:26:52;;;;;;;6.17;3.40;;;27.70;1.00;;;;;;5058836;28;20499;-85
2023/06/23 11:29:21;;;;;;;4.93;3.87;;;28.00;1.00;;;;;;5061640;28;20780;-87
2023/06/23 11:32:05;;;;;;;4.40;3.30;;;28.10;19.80;;;;;;5063281;28;20451;-83
2023/06/23 11:34:48;;;;;;;4.80;3.23;;;28.40;1.00;;;;;;5065473;28;20475;-81
2023/06/23 11:37:15;;;;;;;5.10;3.60;;;28.80;1.00;;;;;;5062583;28;20555;-85
2023/06/23 11:39:45;;;;;;;4.50;3.50;;;28.90;99.90;;;;;;5063447;28;20436;-84
2023/06/23 11:42:12;;;;;;;4.70;3.57;;;28.90;99.90;;;;;;5060660;28;20463;-83
2023/06/23 11:44:39;;;;;;;4.20;3.27;;;29.10;1.00;;;;;;5058889;28;20567;-84
2023/06/23 11:47:06;;;;;;;3.20;2.63;;;29.40;1.00;;;;;;5059197;28;20456;-83
2023/06/23 11:49:33;;;;;;;5.37;3.40;;;29.40;1.00;;;;;;5059307;28;20450;-84
2023/06/23 11:52:03;;;;;;;4.40;3.33;;;29.30;1.00;;;;;;5059315;28;20448;-85
2023/06/23 11:54:32;;;;;;;3.37;3.00;;;28.70;1.00;;;;;;5058718;28;20460;-84
2023/06/23 11:57:01;;;;;;;4.30;3.00;;;28.80;1.00;;;;;;5059702;28;20483;-84
2023/06/23 11:59:34;;;;;;;4.53;2.77;;;29.20;1.00;;;;;;5060263;28;20462;-84
2023/06/23 12:02:01;;;;;;;3.87;3.07;;;29.70;1.00;;;;;;5059802;28;20458;-85
2023/06/23 12:07:28;;;;;;;4.13;2.60;;;30.10;1.00;;;;;;5048148;28;20795;-85
2023/06/23 12:10:02;;;;;;;3.97;2.83;;;30.60;1.00;;;;;;5058951;28;20514;-84
2023/06/23 12:12:32;;;;;;;3.53;2.30;;;30.80;1.00;;;;;;5058591;28;20447;-84
2023/06/23 12:15:00;;;;;;;3.37;2.50;;;30.80;1.00;;;;;;5058750;28;20519;-84
2023/06/23 12:17:27;;;;;;;3.33;2.00;;;31.10;1.00;;;;;;5058763;28;20492;-84
2023/06/23 12:19:54;;;;;;;3.30;2.60;;;30.90;1.00;;;;;;5058784;28;20830;-83
2023/06/23 12:22:21;;;;;;;3.00;2.50;;;31.10;1.00;;;;;;5062470;28;20452;-84
2023/06/23 12:24:48;;;;;;;3.23;2.57;;;31.30;1.00;;;;;;5062776;28;20475;-83
2023/06/23 12:27:15;;;;;;;4.23;2.30;;;31.00;99.90;;;;;;5061696;28;20456;-84
2023/06/23 12:29:44;;;;;;;2.80;2.40;;;31.00;99.90;;;;;;5061487;28;20546;-83
2023/06/23 12:32:10;;;;;;;4.83;2.67;;;30.90;1.00;;;;;;5061935;28;20490;-83
2023/06/23 12:34:44;;;;;;;3.13;2.50;;;31.00;1.00;;;;;;5062654;28;20555;-82
2023/06/23 12:37:12;;;;;;;4.27;2.90;;;31.20;1.00;;;;;;5061058;28;20848;-82
2023/06/23 12:39:39;;;;;;;4.37;3.07;;;31.20;99.90;;;;;;5060785;28;20451;-83
2023/06/23 12:42:08;;;;;;;4.10;3.30;;;31.40;99.90;;;;;;5060764;28;20458;-83
2023/06/23 12:44:36;;;;;;;3.47;2.87;;;31.50;99.90;;;;;;5058800;28;20469;-83
2023/06/23 12:47:07;;;;;;;3.70;2.90;;;31.10;99.90;;;;;;5060694;28;20519;-82
2023/06/23 12:49:38;;;;;;;4.73;2.70;;;30.40;99.90;;;;;;5061198;28;20456;-84
2023/06/23 12:52:10;;;;;;;4.73;2.77;;;30.40;99.90;;;;;;5058040;28;20879;-85
2023/06/23 12:54:37;;;;;;;4.27;2.63;;;30.60;99.90;;;;;;5060019;28;20494;-84
2023/06/23 12:57:04;;;;;;;2.83;2.33;;;30.90;99.90;;;;;;5060793;28;20510;-81
2023/06/23 12:59:31;;;;;;;5.50;2.93;;;31.40;99.90;;;;;;5057945;28;20515;-84